createdAt,value
2018-10-01T00:00:45.672Z,10.63
2018-10-01T00:03:14.838Z,10.00
2018-10-01T00:05:43.949Z,9.63
2018-10-01T00:08:13.067Z,9.87
2018-10-01T00:10:42.211Z,8.63
2018-10-01T00:13:11.318Z,9.57
2018-10-01T00:15:40.472Z,10.03
2018-10-01T00:18:09.631Z,9.43
2018-10-01T00:20:44.017Z,8.83
2018-10-01T00:23:13.125Z,9.65
2018-10-01T00:25:42.240Z,9.40
2018-10-01T00:28:11.364Z,10.20
2018-10-01T00:30:40.513Z,8.73
2018-10-01T00:33:09.661Z,9.20
2018-10-01T00:35:38.760Z,9.50
2018-10-01T00:38:07.936Z,9.67
2018-10-01T00:40:37.933Z,10.43
2018-10-01T00:43:07.065Z,9.90
2018-10-01T00:45:36.173Z,10.43
2018-10-01T00:48:05.322Z,9.93
2018-10-01T00:50:34.480Z,10.38
2018-10-01T00:53:03.647Z,10.13
2018-10-01T00:55:33.744Z,9.60
2018-10-01T00:58:02.919Z,10.10
2018-10-01T01:00:32.103Z,9.93
2018-10-01T01:03:01.530Z,10.67
2018-10-01T01:05:30.717Z,10.57
2018-10-01T01:07:59.808Z,10.72
2018-10-01T01:10:29.097Z,10.73
2018-10-01T01:12:58.274Z,11.93
2018-10-01T01:15:27.796Z,12.13
2018-10-01T01:17:56.949Z,12.10
2018-10-01T01:20:26.125Z,12.07
2018-10-01T01:22:55.507Z,11.63
2018-10-01T01:25:24.906Z,11.77
2018-10-01T01:27:54.146Z,14.03
2018-10-01T01:30:23.324Z,14.50
2018-10-01T01:32:52.480Z,14.15
2018-10-01T01:35:21.668Z,14.55
2018-10-01T01:37:51.016Z,15.17
2018-10-01T01:40:20.184Z,14.90
2018-10-01T01:42:49.384Z,15.60
2018-10-01T01:45:18.494Z,15.50
2018-10-01T01:47:47.864Z,16.63
2018-10-01T01:50:17.150Z,15.67
2018-10-01T01:52:46.323Z,15.40
2018-10-01T01:55:15.484Z,16.95
2018-10-01T01:57:44.637Z,15.80
2018-10-01T02:00:13.752Z,17.40
2018-10-01T02:02:42.911Z,17.57
2018-10-01T02:05:12.107Z,17.00
2018-10-01T02:07:41.324Z,17.57
2018-10-01T02:10:10.477Z,17.90
2018-10-01T02:12:39.701Z,17.37
2018-10-01T02:15:08.848Z,17.27
2018-10-01T02:17:38.025Z,16.03
2018-10-01T02:20:07.185Z,15.63
2018-10-01T02:22:36.516Z,17.13
2018-10-01T02:25:05.859Z,16.50
2018-10-01T02:27:35.061Z,16.23
2018-10-01T02:30:04.358Z,15.03
2018-10-01T02:32:33.511Z,14.60
2018-10-01T02:35:03.092Z,15.70
2018-10-01T02:37:32.548Z,14.93
2018-10-01T02:40:01.825Z,14.83
2018-10-01T02:42:31.047Z,12.93
2018-10-01T02:45:00.196Z,14.23
2018-10-01T02:47:29.390Z,13.28
2018-10-01T02:49:58.554Z,14.87
2018-10-01T02:52:33.278Z,14.40
2018-10-01T02:55:03.437Z,14.10
2018-10-01T02:57:32.893Z,14.90
2018-10-01T03:00:02.035Z,13.80
2018-10-01T03:02:31.177Z,13.73
2018-10-01T03:05:00.339Z,13.00
2018-10-01T03:07:29.480Z,12.98
2018-10-01T03:09:58.740Z,12.73
2018-10-01T03:12:27.925Z,13.13
2018-10-01T03:14:57.064Z,13.48
2018-10-01T03:17:26.252Z,13.38
2018-10-01T03:19:55.439Z,12.50
2018-10-01T03:22:25.613Z,13.58
2018-10-01T03:24:54.829Z,13.53
2018-10-01T03:27:24.046Z,13.07
2018-10-01T03:29:53.250Z,12.43
2018-10-01T03:32:22.420Z,12.13
2018-10-01T03:34:51.739Z,12.43
2018-10-01T03:37:20.886Z,11.87
2018-10-01T03:39:50.048Z,11.80
2018-10-01T03:42:19.242Z,11.83
2018-10-01T03:44:48.526Z,10.93
2018-10-01T03:47:17.971Z,12.07
2018-10-01T03:49:47.114Z,11.60
2018-10-01T03:52:16.272Z,10.47
2018-10-01T03:54:45.752Z,10.93
2018-10-01T03:57:14.880Z,11.60
2018-10-01T03:59:45.280Z,11.18
2018-10-01T04:02:14.428Z,10.87
2018-10-01T04:04:43.792Z,11.53
2018-10-01T04:07:12.955Z,11.17
2018-10-01T04:09:42.084Z,11.10
2018-10-01T04:12:11.304Z,10.75
2018-10-01T04:14:40.440Z,10.75
2018-10-01T04:17:09.593Z,11.38
2018-10-01T04:19:38.824Z,11.27
2018-10-01T04:22:07.952Z,10.67
2018-10-01T04:24:37.145Z,10.57
2018-10-01T04:27:06.312Z,10.80
2018-10-01T04:29:35.481Z,10.58
2018-10-01T04:32:04.965Z,10.23
2018-10-01T04:34:34.092Z,10.70
2018-10-01T04:37:03.212Z,9.97
2018-10-01T04:39:32.375Z,10.00
2018-10-01T04:42:01.544Z,10.53
2018-10-01T04:44:30.950Z,10.43
2018-10-01T04:47:00.092Z,10.20
2018-10-01T04:49:29.258Z,10.93
2018-10-01T04:51:58.403Z,9.83
2018-10-01T04:54:27.533Z,10.33
2018-10-01T04:56:56.704Z,11.03
2018-10-01T04:59:25.832Z,10.70
2018-10-01T05:01:54.977Z,11.20
2018-10-01T05:04:24.231Z,11.23
2018-10-01T05:06:53.408Z,11.23
2018-10-01T05:09:22.564Z,10.25
2018-10-01T05:11:51.708Z,10.58
2018-10-01T05:14:20.877Z,10.63
2018-10-01T05:16:50.082Z,11.00
2018-10-01T05:19:19.256Z,11.87
2018-10-01T05:21:48.612Z,11.70
2018-10-01T05:24:17.818Z,11.38
2018-10-01T05:26:47.045Z,11.88
2018-10-01T05:29:16.200Z,10.00
2018-10-01T05:31:45.419Z,7.30
2018-10-01T05:34:14.623Z,7.13
2018-10-01T05:36:43.789Z,5.60
2018-10-01T05:39:13.420Z,4.40
2018-10-01T05:41:42.594Z,5.13
2018-10-01T05:44:11.741Z,5.10
2018-10-01T05:46:41.793Z,4.80
2018-10-01T05:49:11.051Z,4.90
2018-10-01T05:51:40.181Z,4.20
2018-10-01T05:54:09.320Z,4.70
2018-10-01T05:56:38.467Z,4.60
2018-10-01T05:59:07.664Z,4.37
2018-10-01T06:01:36.883Z,4.53
2018-10-01T06:04:06.096Z,5.20
2018-10-01T06:06:35.311Z,4.60
2018-10-01T06:09:06.589Z,4.05
2018-10-01T06:11:35.990Z,3.92
2018-10-01T06:14:05.349Z,4.72
2018-10-01T06:16:34.507Z,4.20
2018-10-01T06:19:03.673Z,4.20
2018-10-01T06:21:33.003Z,4.70
2018-10-01T06:24:02.252Z,4.35
2018-10-01T06:26:31.523Z,4.62
2018-10-01T06:29:00.745Z,4.40
2018-10-01T06:34:19.951Z,5.53
2018-10-01T06:37:00.064Z,5.60
2018-10-01T06:39:29.425Z,6.20
2018-10-01T06:41:58.795Z,6.90
2018-10-01T06:44:27.934Z,6.20
2018-10-01T06:46:57.130Z,5.80
2018-10-01T06:49:26.304Z,6.27
2018-10-01T06:51:55.528Z,7.23
2018-10-01T06:54:24.719Z,6.75
2018-10-01T06:56:53.957Z,6.42
2018-10-01T06:59:23.091Z,6.53
2018-10-01T07:01:52.712Z,5.93
2018-10-01T07:04:21.904Z,6.50
2018-10-01T07:06:51.101Z,6.77
2018-10-01T07:09:20.318Z,6.77
2018-10-01T07:11:49.603Z,6.50
2018-10-01T07:14:18.747Z,6.00
2018-10-01T07:16:47.991Z,6.07
2018-10-01T07:19:17.184Z,5.80
2018-10-01T07:21:46.342Z,6.13
2018-10-01T07:24:15.558Z,5.95
2018-10-01T07:26:44.888Z,5.90
2018-10-01T07:29:14.109Z,6.30
2018-10-01T07:31:43.429Z,6.07
2018-10-01T07:34:12.584Z,6.03
2018-10-01T07:36:41.721Z,6.30
2018-10-01T07:39:10.924Z,6.03
2018-10-01T07:41:40.070Z,5.70
2018-10-01T07:44:09.489Z,5.90
2018-10-01T07:46:38.679Z,5.43
2018-10-01T07:49:07.852Z,5.30
2018-10-01T07:51:37.047Z,6.47
2018-10-01T07:54:06.240Z,5.33
2018-10-01T07:56:35.500Z,6.03
2018-10-01T07:59:04.696Z,5.60
2018-10-01T08:01:34.046Z,5.40
2018-10-01T08:04:03.235Z,6.07
2018-10-01T08:06:32.461Z,5.62
2018-10-01T08:09:01.630Z,5.47
2018-10-01T08:11:30.804Z,5.90
2018-10-01T08:14:00.103Z,5.20
2018-10-01T08:16:29.326Z,5.87
2018-10-01T08:18:58.480Z,5.40
2018-10-01T08:21:27.636Z,5.12
2018-10-01T08:23:56.877Z,5.25
2018-10-01T08:26:26.144Z,4.67
2018-10-01T08:28:55.329Z,4.63
2018-10-01T08:31:24.628Z,4.80
2018-10-01T08:33:53.836Z,3.63
2018-10-01T08:36:23.036Z,4.37
2018-10-01T08:38:52.242Z,3.73
2018-10-01T08:41:21.443Z,3.57
2018-10-01T08:43:50.692Z,2.87
2018-10-01T08:46:19.890Z,3.27
2018-10-01T08:48:54.276Z,3.25
2018-10-01T08:51:29.103Z,3.40
2018-10-01T08:54:07.404Z,3.13
2018-10-01T08:56:36.571Z,3.07
2018-10-01T08:59:05.871Z,2.67
2018-10-01T09:01:34.999Z,2.77
2018-10-01T09:04:04.179Z,2.53
2018-10-01T09:06:33.829Z,2.00
2018-10-01T09:09:03.167Z,2.10
2018-10-01T09:11:32.374Z,2.23
2018-10-01T09:14:01.591Z,2.00
2018-10-01T09:16:30.777Z,2.20
2018-10-01T09:18:59.969Z,2.13
2018-10-01T09:21:29.267Z,1.83
2018-10-01T09:23:58.936Z,1.70
2018-10-01T09:26:28.301Z,1.53
2018-10-01T09:28:57.463Z,1.70
2018-10-01T09:31:26.664Z,1.47
2018-10-01T09:33:55.826Z,1.50
2018-10-01T09:36:25.740Z,1.60
2018-10-01T09:38:55.020Z,1.60
2018-10-01T09:41:24.211Z,1.50
2018-10-01T09:43:53.381Z,1.60
2018-10-01T09:46:22.598Z,1.30
2018-10-01T09:48:51.754Z,1.43
2018-10-01T09:51:20.916Z,1.40
2018-10-01T09:53:50.196Z,1.50
2018-10-01T09:56:19.363Z,1.00
2018-10-01T09:58:48.587Z,1.30
2018-10-01T10:01:17.808Z,1.23
2018-10-01T10:03:47.047Z,1.20
2018-10-01T10:06:16.232Z,1.80
2018-10-01T10:08:45.366Z,1.10
2018-10-01T10:11:14.560Z,1.80
2018-10-01T10:13:43.775Z,1.03
2018-10-01T10:16:13.033Z,1.20
2018-10-01T10:18:42.900Z,1.30
2018-10-01T10:21:12.077Z,1.20
2018-10-01T10:23:41.264Z,1.27
2018-10-01T10:26:10.435Z,1.20
2018-10-01T10:28:40.241Z,1.03
2018-10-01T10:31:09.548Z,1.17
2018-10-01T10:33:38.709Z,1.07
2018-10-01T10:36:08.098Z,1.30
2018-10-01T10:38:37.387Z,0.90
2018-10-01T10:41:06.568Z,1.20
2018-10-01T10:43:35.732Z,1.02
2018-10-01T10:46:04.942Z,1.00
2018-10-01T10:48:34.101Z,1.30
2018-10-01T10:51:03.269Z,1.20
2018-10-01T10:53:32.814Z,1.03
2018-10-01T10:56:02.055Z,0.93
2018-10-01T10:58:31.191Z,1.10
2018-10-01T11:01:00.392Z,1.00
2018-10-01T11:03:29.536Z,1.10
2018-10-01T11:05:58.724Z,0.93
2018-10-01T11:08:27.993Z,1.40
2018-10-01T11:10:57.197Z,1.27
2018-10-01T11:13:26.380Z,1.20
2018-10-01T11:15:55.537Z,0.93
2018-10-01T11:18:24.798Z,1.00
2018-10-01T11:20:54.059Z,0.80
2018-10-01T11:23:23.216Z,0.80
2018-10-01T11:25:52.384Z,0.90
2018-10-01T11:28:21.581Z,0.77
2018-10-01T11:30:50.839Z,0.70
2018-10-01T11:33:20.093Z,0.90
2018-10-01T11:35:49.400Z,0.70
2018-10-01T11:38:18.590Z,0.70
2018-10-01T11:40:47.755Z,0.65
2018-10-01T11:43:16.937Z,0.70
2018-10-01T11:45:46.898Z,0.90
2018-10-01T11:48:15.982Z,0.87
2018-10-01T11:50:45.468Z,0.70
2018-10-01T11:53:14.675Z,0.80
2018-10-01T11:55:43.929Z,0.65
2018-10-01T11:58:13.108Z,0.73
2018-10-01T12:00:42.711Z,0.80
2018-10-01T12:03:11.934Z,0.60
2018-10-01T12:05:41.096Z,0.60
2018-10-01T12:08:10.287Z,0.80
2018-10-01T12:10:39.497Z,1.00
2018-10-01T12:13:08.669Z,0.70
2018-10-01T12:15:38.754Z,0.60
2018-10-01T12:18:08.196Z,0.90
2018-10-01T12:20:37.551Z,0.93
2018-10-01T12:23:06.943Z,0.80
2018-10-01T12:25:36.126Z,1.10
2018-10-01T12:28:05.400Z,0.90
2018-10-01T12:30:34.619Z,0.80
2018-10-01T12:33:03.789Z,1.00
2018-10-01T12:35:32.984Z,1.00
2018-10-01T12:38:02.160Z,0.70
2018-10-01T12:40:36.845Z,0.90
2018-10-01T12:43:09.880Z,0.60
2018-10-01T12:45:44.480Z,0.75
2018-10-01T12:48:20.017Z,0.60
2018-10-01T12:50:49.856Z,0.70
2018-10-01T12:53:19.057Z,1.00
2018-10-01T12:55:48.192Z,0.70
2018-10-01T12:58:17.299Z,1.00
2018-10-01T13:00:47.016Z,0.97
2018-10-01T13:03:16.188Z,0.70
2018-10-01T13:05:45.307Z,0.90
2018-10-01T13:08:14.504Z,1.30
2018-10-01T13:10:43.653Z,1.30
2018-10-01T13:13:12.796Z,1.35
2018-10-01T13:15:41.988Z,1.20
2018-10-01T13:18:11.617Z,1.40
2018-10-01T13:20:40.777Z,1.53
2018-10-01T13:23:10.600Z,1.33
2018-10-01T13:25:45.312Z,1.10
2018-10-01T13:28:14.524Z,1.50
2018-10-01T13:30:43.699Z,1.60
2018-10-01T13:33:12.827Z,1.50
2018-10-01T13:35:42.026Z,1.60
2018-10-01T13:38:11.155Z,1.40
2018-10-01T13:40:40.312Z,1.30
2018-10-01T13:43:09.500Z,1.33
2018-10-01T13:45:38.641Z,1.50
2018-10-01T13:48:07.897Z,1.50
2018-10-01T13:50:36.940Z,1.40
2018-10-01T13:53:06.164Z,1.80
2018-10-01T13:55:35.284Z,1.40
2018-10-01T13:58:04.522Z,1.63
2018-10-01T14:00:33.709Z,1.80
2018-10-01T14:03:02.912Z,1.33
2018-10-01T14:05:32.122Z,1.70
2018-10-01T14:08:01.325Z,1.57
2018-10-01T14:10:30.425Z,1.57
2018-10-01T14:12:59.583Z,1.50
2018-10-01T14:15:28.712Z,1.60
2018-10-01T14:17:58.127Z,1.70
2018-10-01T14:20:27.931Z,1.30
2018-10-01T14:22:57.336Z,1.57
2018-10-01T14:25:26.948Z,1.62
2018-10-01T14:27:56.128Z,1.70
2018-10-01T14:30:25.439Z,1.20
2018-10-01T14:32:55.256Z,1.40
2018-10-01T14:35:24.496Z,1.30
2018-10-01T14:37:53.612Z,1.20
2018-10-01T14:40:22.809Z,1.23
2018-10-01T14:42:53.125Z,1.53
2018-10-01T14:45:22.697Z,1.85
2018-10-01T14:47:51.856Z,1.40
2018-10-01T14:50:21.139Z,1.97
2018-10-01T14:52:50.271Z,1.50
2018-10-01T14:55:19.417Z,1.73
2018-10-01T14:57:48.748Z,1.60
2018-10-01T15:00:17.901Z,1.60
2018-10-01T15:02:47.111Z,1.60
2018-10-01T15:05:16.282Z,1.57
2018-10-01T15:07:45.412Z,1.93
2018-10-01T15:10:14.664Z,2.15
2018-10-01T15:12:43.880Z,1.97
2018-10-01T15:15:13.115Z,2.20
2018-10-01T15:17:42.560Z,1.90
2018-10-01T15:20:11.774Z,2.13
2018-10-01T15:22:40.952Z,2.17
2018-10-01T15:25:10.261Z,2.15
2018-10-01T15:27:39.401Z,1.83
2018-10-01T15:30:08.831Z,1.83
2018-10-01T15:32:37.972Z,2.03
2018-10-01T15:35:07.174Z,1.53
2018-10-01T15:37:36.296Z,2.13
2018-10-01T15:40:05.549Z,1.90
2018-10-01T15:42:34.726Z,1.80
2018-10-01T15:45:04.078Z,1.93
2018-10-01T15:47:33.206Z,1.87
2018-10-01T15:50:02.448Z,1.83
2018-10-01T15:52:31.520Z,1.67
2018-10-01T15:55:00.664Z,1.80
2018-10-01T15:57:30.373Z,1.70
2018-10-01T16:00:00.277Z,1.80
2018-10-01T16:02:29.671Z,1.63
2018-10-01T16:04:58.856Z,1.50
2018-10-01T16:07:28.152Z,1.60
2018-10-01T16:09:57.316Z,2.00
2018-10-01T16:12:26.481Z,1.60
2018-10-01T16:14:56.049Z,2.07
2018-10-01T16:17:25.138Z,1.60
2018-10-01T16:19:54.362Z,1.60
2018-10-01T16:22:23.561Z,1.80
2018-10-01T16:24:52.738Z,1.73
2018-10-01T16:27:21.987Z,1.55
2018-10-01T16:29:51.100Z,1.47
2018-10-01T16:32:20.276Z,1.20
2018-10-01T16:34:49.379Z,1.57
2018-10-01T16:37:18.553Z,1.10
2018-10-01T16:39:47.656Z,1.47
2018-10-01T16:42:16.874Z,1.80
2018-10-01T16:44:45.970Z,2.20
2018-10-01T16:47:15.097Z,1.43
2018-10-01T16:49:44.592Z,1.30
2018-10-01T16:52:13.760Z,1.30
2018-10-01T16:54:42.922Z,1.40
2018-10-01T16:57:12.192Z,1.90
2018-10-01T16:59:41.306Z,1.32
2018-10-01T17:02:10.444Z,1.30
2018-10-01T17:04:40.440Z,1.60
2018-10-01T17:07:09.648Z,1.50
2018-10-01T17:09:38.945Z,1.77
2018-10-01T17:12:08.256Z,1.73
2018-10-01T17:14:37.571Z,1.77
2018-10-01T17:17:06.953Z,1.30
2018-10-01T17:19:36.112Z,1.20
2018-10-01T17:22:05.320Z,1.43
2018-10-01T17:24:34.613Z,1.70
2018-10-01T17:27:04.537Z,1.60
2018-10-01T17:29:33.724Z,1.73
2018-10-01T17:32:03.674Z,1.40
2018-10-01T17:34:32.852Z,1.70
2018-10-01T17:37:03.994Z,1.40
2018-10-01T17:39:33.143Z,1.40
2018-10-01T17:42:02.556Z,1.30
2018-10-01T17:44:31.688Z,1.33
2018-10-01T17:47:00.812Z,1.57
2018-10-01T17:49:29.926Z,2.13
2018-10-01T17:52:01.659Z,1.80
2018-10-01T17:54:30.862Z,1.53
2018-10-01T17:57:00.102Z,1.90
2018-10-01T17:59:29.249Z,1.40
2018-10-01T18:01:58.421Z,1.60
2018-10-01T18:04:28.510Z,3.20
2018-10-01T18:06:57.640Z,3.47
2018-10-01T18:09:26.752Z,2.30
2018-10-01T18:11:55.981Z,1.82
2018-10-01T18:14:25.050Z,1.55
2018-10-01T18:16:54.396Z,1.50
2018-10-01T18:19:23.496Z,1.57
2018-10-01T18:21:53.614Z,1.27
2018-10-01T18:24:22.772Z,1.43
2018-10-01T18:26:51.851Z,1.93
2018-10-01T18:29:21.112Z,1.40
2018-10-01T18:31:50.232Z,1.40
2018-10-01T18:34:19.373Z,1.83
2018-10-01T18:36:48.523Z,1.30
2018-10-01T18:39:22.155Z,1.50
2018-10-01T18:41:51.357Z,2.67
2018-10-01T18:44:20.524Z,3.03
2018-10-01T18:46:49.828Z,2.80
2018-10-01T18:49:19.080Z,2.70
2018-10-01T18:51:48.351Z,3.50
2018-10-01T18:54:17.652Z,3.20
2018-10-01T18:56:46.753Z,2.97
2018-10-01T18:59:15.957Z,2.40
2018-10-01T19:01:45.188Z,2.65
2018-10-01T19:04:14.427Z,2.85
2018-10-01T19:06:43.993Z,2.43
2018-10-01T19:09:13.379Z,2.90
2018-10-01T19:11:42.888Z,2.30
2018-10-01T19:14:12.080Z,2.30
2018-10-01T19:16:41.365Z,2.57
2018-10-01T19:19:10.540Z,2.52
2018-10-01T19:21:39.730Z,2.17
2018-10-01T19:24:08.945Z,2.13
2018-10-01T19:26:38.136Z,2.33
2018-10-01T19:29:07.273Z,2.20
2018-10-01T19:31:36.564Z,2.65
2018-10-01T19:34:05.822Z,2.17
2018-10-01T19:36:35.026Z,2.10
2018-10-01T19:39:05.463Z,2.70
2018-10-01T19:41:34.609Z,3.20
2018-10-01T19:44:03.978Z,2.60
2018-10-01T19:46:33.092Z,2.40
2018-10-01T19:49:02.640Z,2.70
2018-10-01T19:51:31.799Z,2.80
2018-10-01T19:54:00.969Z,2.10
2018-10-01T19:56:30.244Z,2.43
2018-10-01T19:58:59.507Z,2.30
2018-10-01T20:01:28.596Z,2.37
2018-10-01T20:03:57.915Z,2.40
2018-10-01T20:06:27.091Z,2.75
2018-10-01T20:08:56.345Z,2.37
2018-10-01T20:11:25.547Z,2.40
2018-10-01T20:13:54.612Z,2.03
2018-10-01T20:16:23.848Z,2.40
2018-10-01T20:18:52.969Z,2.20
2018-10-01T20:21:22.161Z,2.27
2018-10-01T20:23:51.330Z,2.40
2018-10-01T20:26:20.540Z,2.22
2018-10-01T20:28:50.055Z,1.90
2018-10-01T20:31:18.924Z,2.10
2018-10-01T20:33:48.189Z,1.82
2018-10-01T20:36:17.432Z,1.92
2018-10-01T20:38:46.673Z,2.45
2018-10-01T20:41:15.787Z,2.27
2018-10-01T20:43:45.040Z,2.17
2018-10-01T20:46:14.209Z,2.30
2018-10-01T20:48:43.358Z,2.08
2018-10-01T20:51:12.562Z,2.10
2018-10-01T20:53:45.725Z,2.60
2018-10-01T20:56:15.511Z,2.70
2018-10-01T20:58:44.707Z,2.80
2018-10-01T21:01:13.910Z,2.67
2018-10-01T21:03:43.077Z,1.90
2018-10-01T21:06:12.323Z,2.10
2018-10-01T21:08:41.647Z,2.10
2018-10-01T21:11:10.813Z,2.17
2018-10-01T21:13:40.087Z,2.50
2018-10-01T21:16:09.331Z,2.63
2018-10-01T21:18:38.582Z,2.30
2018-10-01T21:21:07.856Z,2.10
2018-10-01T21:23:37.100Z,2.50
2018-10-01T21:26:06.636Z,2.57
2018-10-01T21:28:35.909Z,2.50
2018-10-01T21:31:05.090Z,3.27
2018-10-01T21:33:34.357Z,2.60
2018-10-01T21:36:03.654Z,3.20
2018-10-01T21:38:32.901Z,2.97
2018-10-01T21:41:02.217Z,2.72
2018-10-01T21:43:31.367Z,3.00
2018-10-01T21:46:00.584Z,2.97
2018-10-01T21:48:29.781Z,2.80
2018-10-01T21:50:59.012Z,2.87
2018-10-01T21:53:28.248Z,3.12
2018-10-01T21:55:57.520Z,3.27
2018-10-01T21:58:26.866Z,2.90
2018-10-01T22:01:01.313Z,3.00
2018-10-01T22:03:30.466Z,3.00
2018-10-01T22:05:59.679Z,2.70
2018-10-01T22:08:28.816Z,2.53
2018-10-01T22:10:58.100Z,2.50
2018-10-01T22:13:27.321Z,2.30
2018-10-01T22:15:56.589Z,2.87
2018-10-01T22:18:26.788Z,2.30
2018-10-01T22:20:55.979Z,2.00
2018-10-01T22:23:25.262Z,2.27
2018-10-01T22:25:54.450Z,2.50
2018-10-01T22:28:23.609Z,3.17
2018-10-01T22:30:52.800Z,1.95
2018-10-01T22:33:22.012Z,2.20
2018-10-01T22:35:51.243Z,2.60
2018-10-01T22:38:20.454Z,2.70
2018-10-01T22:40:49.703Z,2.80
2018-10-01T22:43:18.886Z,2.30
2018-10-01T22:45:48.160Z,2.70
2018-10-01T22:48:17.309Z,2.80
2018-10-01T22:50:46.716Z,2.73
2018-10-01T22:53:15.913Z,2.80
2018-10-01T22:55:45.156Z,3.13
2018-10-01T22:58:14.355Z,2.50
2018-10-01T23:00:43.533Z,2.98
2018-10-01T23:03:12.744Z,2.80
2018-10-01T23:05:42.199Z,3.07
2018-10-01T23:08:11.364Z,3.10
2018-10-01T23:10:40.493Z,3.10
2018-10-01T23:13:09.669Z,2.80
2018-10-01T23:15:38.800Z,2.90
2018-10-01T23:18:08.012Z,3.83
2018-10-01T23:20:37.335Z,3.30
2018-10-01T23:23:06.573Z,3.90
2018-10-01T23:25:35.757Z,3.67
2018-10-01T23:28:04.896Z,3.70
2018-10-01T23:30:34.062Z,4.53
2018-10-01T23:33:03.773Z,3.65
2018-10-01T23:35:32.886Z,3.00
2018-10-01T23:38:02.114Z,3.33
2018-10-01T23:40:31.402Z,3.00
2018-10-01T23:43:00.631Z,3.27
2018-10-01T23:45:29.851Z,2.90
2018-10-01T23:47:59.009Z,2.83
2018-10-01T23:50:28.223Z,3.30
2018-10-01T23:52:57.371Z,3.00
2018-10-01T23:55:26.623Z,3.20
2018-10-01T23:57:55.746Z,3.10
